This is the latest recevied weather packets stored in our database for station/object OK2ILA-13. If no packets are shown the sender has not sent any weather packets the latest 10 day(s).
| Time | Temp. | Humidity | Pressure | Rain* | Wind** | Luminosity | Snow |
|---|---|---|---|---|---|---|---|
| 1777371595 | 8.89° C | 46% | 1022.2 hPa | - | - | - | - |
| 1777370995 | 9.44° C | 48% | 1022.4 hPa | - | - | - | - |
| 1777370395 | 8.33° C | 48% | 1022.4 hPa | - | - | - | - |
| 1777369795 | 9.44° C | 45% | 1022.3 hPa | - | - | - | - |
| 1777369195 | 8.33° C | 46% | 1022.4 hPa | - | - | - | - |
| 1777368596 | 8.89° C | 47% | 1022.4 hPa | - | - | - | - |
| 1777367996 | 8.33° C | 46% | 1022.3 hPa | - | - | - | - |
| 1777367396 | 8.89° C | 46% | 1022.3 hPa | - | - | - | - |
| 1777366796 | 8.33° C | 46% | 1022.2 hPa | - | - | - | - |
| 1777366197 | 8.89° C | 46% | 1022.2 hPa | - | - | - | - |
| 1777365597 | 7.78° C | 48% | 1022.2 hPa | - | - | - | - |
| 1777364997 | 8.33° C | 47% | 1022.2 hPa | - | - | - | - |
| 1777364398 | 7.22° C | 48% | 1022.2 hPa | - | - | - | - |
| 1777363798 | 7.22° C | 48% | 1022.4 hPa | - | - | - | - |
| 1777363198 | 7.78° C | 48% | 1022.1 hPa | - | - | - | - |
| 1777362598 | 7.22° C | 49% | 1022.1 hPa | - | - | - | - |
| 1777361999 | 7.78° C | 48% | 1022 hPa | - | - | - | - |
| 1777361400 | 7.22° C | 49% | 1022 hPa | - | - | - | - |
| 1777360800 | 7.78° C | 48% | 1021.8 hPa | - | - | - | - |
| 1777360201 | 6.11° C | 52% | 1021.9 hPa | - | - | - | - |
| 1777359602 | 5.56° C | 53% | 1021.7 hPa | - | - | - | - |
| 1777359002 | 5.56° C | 53% | 1021.6 hPa | - | - | - | - |
| 1777358401 | 5° C | 53% | 1021.7 hPa | - | - | - | - |
| 1777357802 | 5° C | 53% | 1021.6 hPa | - | - | - | - |
| 1777357203 | 5° C | 53% | 1021.5 hPa | - | - | - | - |
* Rain since midnight (hover to see other rain measurements)
** Current wind speed in m/s (hover to see current wind gust speed)